createdAt,value
2017-07-20T00:01:42.171Z,20.04
2017-07-20T00:04:10.839Z,20.06
2017-07-20T00:06:40.140Z,20.08
2017-07-20T00:09:08.398Z,20.01
2017-07-20T00:11:36.512Z,20.05
2017-07-20T00:14:04.093Z,20.10
2017-07-20T00:16:31.703Z,19.99
2017-07-20T00:18:59.607Z,19.85
2017-07-20T00:21:27.394Z,19.91
2017-07-20T00:23:55.890Z,19.88
2017-07-20T00:26:23.559Z,20.00
2017-07-20T00:28:51.128Z,20.14
2017-07-20T00:31:18.762Z,20.13
2017-07-20T00:33:46.350Z,20.09
2017-07-20T00:36:14.955Z,20.00
2017-07-20T00:38:42.586Z,19.74
2017-07-20T00:41:11.687Z,19.73
2017-07-20T00:43:40.650Z,19.74
2017-07-20T00:46:08.243Z,19.74
2017-07-20T00:48:36.805Z,19.49
2017-07-20T00:51:04.355Z,19.84
2017-07-20T00:53:31.912Z,20.16
2017-07-20T00:55:59.551Z,20.32
2017-07-20T00:58:27.249Z,20.49
2017-07-20T01:00:54.935Z,20.59
2017-07-20T01:03:22.752Z,20.64
2017-07-20T01:05:50.843Z,20.66
2017-07-20T01:08:19.226Z,20.61
2017-07-20T01:10:48.044Z,20.58
2017-07-20T01:13:15.619Z,20.65
2017-07-20T01:15:43.722Z,20.67
2017-07-20T01:18:12.007Z,20.69
2017-07-20T01:20:39.658Z,20.62
2017-07-20T01:23:07.894Z,20.61
2017-07-20T01:25:36.238Z,20.59
2017-07-20T01:28:03.986Z,20.57
2017-07-20T01:30:32.471Z,20.60
2017-07-20T01:33:00.363Z,20.55
2017-07-20T01:35:28.691Z,20.53
2017-07-20T01:37:56.365Z,20.52
2017-07-20T01:40:23.907Z,20.48
2017-07-20T01:42:51.421Z,20.44
2017-07-20T01:45:19.044Z,20.46
2017-07-20T01:47:46.805Z,20.37
2017-07-20T01:50:14.342Z,20.27
2017-07-20T01:52:55.658Z,20.24
2017-07-20T01:55:23.208Z,20.23
2017-07-20T01:57:50.738Z,20.16
2017-07-20T02:00:18.393Z,20.17
2017-07-20T02:02:45.963Z,20.20
2017-07-20T02:05:13.498Z,20.14
2017-07-20T02:07:41.058Z,20.08
2017-07-20T02:10:08.877Z,20.07
2017-07-20T02:12:36.486Z,20.14
2017-07-20T02:15:04.289Z,20.20
2017-07-20T02:17:32.708Z,20.11
2017-07-20T02:20:00.329Z,20.05
2017-07-20T02:22:29.063Z,20.07
2017-07-20T02:24:56.626Z,20.12
2017-07-20T02:27:24.396Z,20.08
2017-07-20T02:29:51.978Z,20.02
2017-07-20T02:32:20.821Z,19.98
2017-07-20T02:34:48.627Z,19.92
2017-07-20T02:37:17.741Z,19.92
2017-07-20T02:39:45.331Z,19.79
2017-07-20T02:42:12.895Z,19.80
2017-07-20T02:44:40.426Z,19.81
2017-07-20T02:47:08.114Z,19.74
2017-07-20T02:49:35.679Z,19.78
2017-07-20T02:52:03.441Z,19.76
2017-07-20T02:54:30.990Z,19.53
2017-07-20T02:56:58.782Z,19.54
2017-07-20T02:59:27.072Z,19.56
2017-07-20T03:01:55.141Z,19.50
2017-07-20T03:04:22.742Z,19.56
2017-07-20T03:06:51.189Z,19.44
2017-07-20T03:09:18.852Z,19.35
2017-07-20T03:11:46.443Z,19.10
2017-07-20T03:14:14.106Z,19.29
2017-07-20T03:16:41.748Z,19.33
2017-07-20T03:19:09.309Z,19.37
2017-07-20T03:21:38.737Z,19.36
2017-07-20T03:24:06.533Z,19.30
2017-07-20T03:26:34.088Z,19.30
2017-07-20T03:29:01.588Z,19.26
2017-07-20T03:31:29.180Z,19.38
2017-07-20T03:33:56.710Z,19.48
2017-07-20T03:36:24.264Z,19.52
2017-07-20T03:38:51.835Z,19.61
2017-07-20T03:41:19.377Z,19.57
2017-07-20T03:43:47.193Z,19.64
2017-07-20T03:46:14.759Z,19.65
2017-07-20T03:48:42.611Z,19.56
2017-07-20T03:51:11.916Z,19.70
2017-07-20T03:53:39.523Z,19.64
2017-07-20T03:56:07.054Z,19.68
2017-07-20T03:58:34.627Z,19.70
2017-07-20T04:01:02.202Z,19.74
2017-07-20T04:03:29.750Z,19.81
2017-07-20T04:05:57.301Z,19.66
2017-07-20T04:08:25.825Z,19.61
2017-07-20T04:10:53.368Z,19.74
2017-07-20T04:13:21.735Z,19.93
2017-07-20T04:15:50.201Z,19.93
2017-07-20T04:18:17.817Z,20.09
2017-07-20T04:20:45.407Z,20.11
2017-07-20T04:23:12.963Z,20.59
2017-07-20T04:25:40.713Z,21.73
2017-07-20T04:28:08.327Z,22.12
2017-07-20T04:30:35.951Z,22.41
2017-07-20T04:33:03.493Z,22.73
2017-07-20T04:35:31.042Z,23.03
2017-07-20T04:37:58.607Z,23.00
2017-07-20T04:40:26.207Z,23.06
2017-07-20T04:42:53.802Z,22.14
2017-07-20T04:48:41.523Z,21.54
2017-07-20T04:54:16.649Z,21.52
2017-07-20T04:56:45.046Z,21.40
2017-07-20T04:59:12.667Z,21.14
2017-07-20T05:01:41.216Z,21.02
2017-07-20T05:04:08.795Z,21.11
2017-07-20T05:06:37.223Z,20.92
2017-07-20T05:09:04.997Z,20.94
2017-07-20T05:11:32.554Z,21.21
2017-07-20T05:14:00.165Z,20.98
2017-07-20T05:16:27.819Z,21.17
2017-07-20T05:18:55.418Z,21.33
2017-07-20T05:21:23.040Z,21.54
2017-07-20T05:23:50.687Z,21.68
2017-07-20T05:26:18.262Z,21.66
2017-07-20T05:28:45.920Z,21.80
2017-07-20T05:31:13.538Z,21.97
2017-07-20T05:33:41.167Z,22.17
2017-07-20T05:36:08.847Z,22.42
2017-07-20T05:38:36.676Z,22.58
2017-07-20T05:41:05.087Z,22.79
2017-07-20T05:43:33.618Z,23.03
2017-07-20T05:46:01.705Z,23.36
2017-07-20T05:48:29.835Z,23.69
2017-07-20T05:50:57.494Z,23.69
2017-07-20T05:53:25.849Z,23.92
2017-07-20T05:55:54.304Z,23.93
2017-07-20T05:58:22.727Z,24.15
2017-07-20T06:00:50.354Z,24.46
2017-07-20T06:03:18.105Z,24.67
2017-07-20T06:05:45.890Z,24.91
2017-07-20T06:08:13.494Z,25.32
2017-07-20T06:10:41.297Z,25.33
2017-07-20T06:13:09.051Z,24.99
2017-07-20T06:15:36.661Z,24.70
2017-07-20T06:18:04.255Z,24.93
2017-07-20T06:20:33.509Z,25.08
2017-07-20T06:23:01.802Z,25.52
2017-07-20T06:25:30.163Z,25.78
2017-07-20T06:27:57.765Z,25.74
2017-07-20T06:30:25.457Z,26.26
2017-07-20T06:32:53.524Z,26.43
2017-07-20T06:35:21.985Z,25.97
2017-07-20T06:37:50.252Z,26.43
2017-07-20T06:40:18.223Z,26.91
2017-07-20T06:42:46.656Z,27.14
2017-07-20T06:45:14.532Z,27.34
2017-07-20T06:47:42.299Z,27.55
2017-07-20T06:50:10.003Z,27.32
2017-07-20T06:52:37.741Z,27.23
2017-07-20T06:55:05.564Z,27.04
2017-07-20T06:57:33.289Z,27.09
2017-07-20T07:00:00.863Z,27.45
2017-07-20T07:02:31.823Z,27.42
2017-07-20T07:05:00.791Z,27.83
2017-07-20T07:07:29.490Z,27.68
2017-07-20T07:09:59.885Z,27.66
2017-07-20T07:12:27.469Z,27.59
2017-07-20T07:14:55.094Z,27.87
2017-07-20T07:17:22.900Z,27.90
2017-07-20T07:19:51.355Z,27.54
2017-07-20T07:22:19.358Z,27.76
2017-07-20T07:24:46.953Z,27.85
2017-07-20T07:27:14.787Z,28.15
2017-07-20T07:29:43.631Z,28.15
2017-07-20T07:32:12.743Z,28.16
2017-07-20T07:34:40.330Z,28.06
2017-07-20T07:37:07.930Z,28.17
2017-07-20T07:39:35.532Z,28.38
2017-07-20T07:42:03.169Z,28.31
2017-07-20T07:44:30.801Z,28.40
2017-07-20T07:46:59.249Z,28.42
2017-07-20T07:49:27.711Z,28.31
2017-07-20T07:51:55.521Z,28.51
2017-07-20T07:54:23.239Z,27.73
2017-07-20T07:56:52.346Z,28.41
2017-07-20T07:59:19.936Z,28.67
2017-07-20T08:01:47.630Z,28.84
2017-07-20T08:04:15.788Z,28.65
2017-07-20T08:06:43.561Z,27.99
2017-07-20T08:09:11.179Z,27.93
2017-07-20T08:12:10.704Z,27.94
2017-07-20T08:14:38.618Z,28.57
2017-07-20T08:17:06.270Z,27.94
2017-07-20T08:19:33.923Z,27.60
2017-07-20T08:22:01.591Z,27.79
2017-07-20T08:24:29.177Z,27.92
2017-07-20T08:26:56.740Z,28.00
2017-07-20T08:29:24.359Z,28.34
2017-07-20T08:31:52.009Z,28.97
2017-07-20T08:34:19.584Z,28.74
2017-07-20T08:36:47.215Z,28.99
2017-07-20T08:39:14.961Z,29.16
2017-07-20T08:41:42.641Z,29.27
2017-07-20T08:44:10.295Z,29.51
2017-07-20T08:46:38.032Z,29.55
2017-07-20T08:49:10.704Z,29.64
2017-07-20T08:51:38.302Z,29.90
2017-07-20T08:54:06.834Z,29.45
2017-07-20T08:56:34.673Z,29.53
2017-07-20T08:59:02.319Z,29.89
2017-07-20T09:01:31.290Z,29.63
2017-07-20T09:03:59.805Z,29.25
2017-07-20T09:06:29.016Z,29.51
2017-07-20T09:08:56.788Z,29.89
2017-07-20T09:11:24.341Z,30.45
2017-07-20T09:13:52.630Z,30.63
2017-07-20T09:16:20.276Z,30.76
2017-07-20T09:18:48.920Z,30.51
2017-07-20T09:21:17.185Z,30.11
2017-07-20T09:23:46.569Z,30.03
2017-07-20T09:26:14.182Z,29.23
2017-07-20T09:28:42.398Z,29.78
2017-07-20T09:31:10.075Z,30.52
2017-07-20T09:33:38.675Z,30.77
2017-07-20T09:36:06.504Z,30.79
2017-07-20T09:38:34.116Z,31.02
2017-07-20T09:41:01.947Z,31.31
2017-07-20T09:43:29.862Z,31.30
2017-07-20T09:45:58.321Z,30.77
2017-07-20T09:48:26.008Z,30.46
2017-07-20T09:50:53.785Z,29.73
2017-07-20T09:53:22.905Z,29.96
2017-07-20T09:55:50.595Z,30.66
2017-07-20T09:58:18.212Z,30.92
2017-07-20T10:00:46.881Z,31.20
2017-07-20T10:03:14.913Z,30.94
2017-07-20T10:05:44.402Z,30.23
2017-07-20T10:08:12.874Z,30.08
2017-07-20T10:10:40.665Z,30.10
2017-07-20T10:13:08.922Z,30.14
2017-07-20T10:15:36.557Z,30.35
2017-07-20T10:18:04.121Z,30.65
2017-07-20T10:20:31.694Z,30.12
2017-07-20T10:22:59.360Z,29.61
2017-07-20T10:25:26.923Z,29.69
2017-07-20T10:27:56.011Z,29.49
2017-07-20T10:30:23.659Z,29.48
2017-07-20T10:32:51.440Z,29.69
2017-07-20T10:35:20.676Z,29.49
2017-07-20T10:37:48.461Z,29.60
2017-07-20T10:40:16.694Z,29.67
2017-07-20T10:42:44.680Z,29.83
2017-07-20T10:45:12.883Z,29.85
2017-07-20T10:47:40.520Z,29.90
2017-07-20T10:50:08.132Z,30.15
2017-07-20T10:52:35.783Z,30.46
2017-07-20T10:55:03.420Z,30.19
2017-07-20T10:57:31.030Z,30.19
2017-07-20T10:59:58.700Z,30.06
2017-07-20T11:02:26.299Z,30.39
2017-07-20T11:04:53.934Z,30.01
2017-07-20T11:07:22.577Z,30.03
2017-07-20T11:09:51.638Z,30.16
2017-07-20T11:12:20.030Z,30.42
2017-07-20T11:14:47.773Z,30.65
2017-07-20T11:17:16.052Z,30.47
2017-07-20T11:19:44.564Z,30.43
2017-07-20T11:22:14.278Z,30.23
2017-07-20T11:24:42.537Z,30.24
2017-07-20T11:27:10.148Z,30.22
2017-07-20T11:29:37.720Z,30.01
2017-07-20T11:32:05.350Z,29.94
2017-07-20T11:34:33.013Z,30.64
2017-07-20T11:37:02.929Z,31.23
2017-07-20T11:39:30.562Z,30.88
2017-07-20T11:41:59.450Z,30.60
2017-07-20T11:44:46.369Z,30.83
2017-07-20T11:47:14.421Z,31.12
2017-07-20T11:49:43.065Z,31.08
2017-07-20T11:52:11.490Z,30.82
2017-07-20T11:54:40.000Z,31.05
2017-07-20T11:57:07.787Z,30.93
2017-07-20T11:59:35.393Z,30.60
2017-07-20T12:02:03.066Z,30.34
2017-07-20T12:04:31.714Z,30.22
2017-07-20T12:06:59.300Z,30.25
2017-07-20T12:09:26.874Z,30.70
2017-07-20T12:11:54.457Z,30.84
2017-07-20T12:14:21.986Z,30.41
2017-07-20T12:16:49.542Z,30.56
2017-07-20T12:19:17.284Z,30.65
2017-07-20T12:21:44.813Z,31.04
2017-07-20T12:24:12.413Z,30.84
2017-07-20T12:26:39.986Z,30.72
2017-07-20T12:29:09.114Z,30.99
2017-07-20T12:31:37.050Z,30.81
2017-07-20T12:34:05.392Z,30.71
2017-07-20T12:36:32.911Z,30.34
2017-07-20T12:39:00.499Z,30.61
2017-07-20T12:41:28.024Z,30.86
2017-07-20T12:43:56.241Z,31.07
2017-07-20T12:46:24.720Z,30.46
2017-07-20T12:48:53.253Z,30.48
2017-07-20T12:51:20.871Z,30.41
2017-07-20T12:53:48.486Z,30.35
2017-07-20T12:56:16.655Z,30.30
2017-07-20T12:58:45.707Z,30.38
2017-07-20T13:01:13.353Z,30.21
2017-07-20T13:03:42.261Z,30.41
2017-07-20T13:06:11.686Z,30.62
2017-07-20T13:08:39.292Z,31.01
2017-07-20T13:11:06.894Z,31.23
2017-07-20T13:13:34.415Z,31.03
2017-07-20T13:16:03.427Z,30.75
2017-07-20T13:18:30.994Z,30.43
2017-07-20T13:20:59.503Z,30.23
2017-07-20T13:23:27.964Z,30.48
2017-07-20T13:25:56.941Z,30.68
2017-07-20T13:28:25.038Z,30.38
2017-07-20T13:30:53.411Z,30.44
2017-07-20T13:33:21.945Z,30.43
2017-07-20T13:35:49.479Z,30.41
2017-07-20T13:38:17.298Z,30.29
2017-07-20T13:40:45.095Z,30.31
2017-07-20T13:43:12.939Z,30.32
2017-07-20T13:45:40.556Z,30.62
2017-07-20T13:48:08.921Z,30.78
2017-07-20T13:50:37.527Z,30.59
2017-07-20T13:53:06.011Z,30.51
2017-07-20T13:55:33.978Z,30.48
2017-07-20T13:58:02.047Z,30.41
2017-07-20T14:00:30.388Z,30.09
2017-07-20T14:02:58.871Z,30.03
2017-07-20T14:05:26.664Z,30.23
2017-07-20T14:07:54.637Z,30.30
2017-07-20T14:10:22.423Z,30.15
2017-07-20T14:12:50.964Z,30.02
2017-07-20T14:15:18.583Z,30.08
2017-07-20T14:17:46.349Z,29.91
2017-07-20T14:20:14.963Z,30.03
2017-07-20T14:22:43.898Z,29.94
2017-07-20T14:25:12.485Z,30.20
2017-07-20T14:27:40.894Z,30.34
2017-07-20T14:30:09.199Z,30.31
2017-07-20T14:32:37.118Z,30.19
2017-07-20T14:35:05.601Z,30.23
2017-07-20T14:37:33.766Z,30.25
2017-07-20T14:40:02.202Z,30.10
2017-07-20T14:42:29.843Z,30.17
2017-07-20T14:44:58.133Z,30.18
2017-07-20T14:47:25.713Z,29.90
2017-07-20T14:49:54.281Z,29.97
2017-07-20T14:52:21.974Z,30.02
2017-07-20T14:54:49.585Z,30.16
2017-07-20T14:57:17.945Z,30.25
2017-07-20T14:59:45.530Z,30.32
2017-07-20T15:02:14.036Z,30.44
2017-07-20T15:04:41.705Z,30.18
2017-07-20T15:07:10.575Z,29.94
2017-07-20T15:09:38.712Z,29.91
2017-07-20T15:12:07.127Z,29.89
2017-07-20T15:14:34.682Z,30.07
2017-07-20T15:17:02.655Z,29.88
2017-07-20T15:19:30.330Z,29.99
2017-07-20T15:21:57.947Z,29.85
2017-07-20T15:24:26.442Z,29.64
2017-07-20T15:26:53.966Z,29.71
2017-07-20T15:29:22.247Z,29.73
2017-07-20T15:31:50.923Z,29.64
2017-07-20T15:34:18.623Z,29.72
2017-07-20T15:36:47.445Z,29.54
2017-07-20T15:39:15.501Z,29.58
2017-07-20T15:41:43.622Z,29.68
2017-07-20T15:44:12.227Z,29.71
2017-07-20T15:46:39.787Z,29.48
2017-07-20T15:49:07.628Z,29.54
2017-07-20T15:51:35.404Z,29.50
2017-07-20T15:54:03.009Z,29.53
2017-07-20T15:56:31.193Z,29.44
2017-07-20T15:58:59.501Z,29.48
2017-07-20T16:01:27.459Z,29.42
2017-07-20T16:03:55.089Z,29.57
2017-07-20T16:06:23.459Z,29.45
2017-07-20T16:08:51.212Z,29.33
2017-07-20T16:11:18.954Z,29.41
2017-07-20T16:13:47.126Z,29.41
2017-07-20T16:16:14.740Z,29.46
2017-07-20T16:18:42.250Z,29.33
2017-07-20T16:21:09.785Z,29.23
2017-07-20T16:23:38.934Z,29.20
2017-07-20T16:26:07.431Z,29.12
2017-07-20T16:28:35.127Z,29.13
2017-07-20T16:31:03.852Z,29.13
2017-07-20T16:33:32.753Z,29.06
2017-07-20T16:36:01.281Z,29.13
2017-07-20T16:38:29.901Z,29.19
2017-07-20T16:40:58.562Z,29.23
2017-07-20T16:43:27.004Z,29.24
2017-07-20T16:45:55.356Z,29.23
2017-07-20T16:48:23.158Z,29.14
2017-07-20T16:50:50.906Z,29.03
2017-07-20T16:53:19.286Z,28.88
2017-07-20T16:55:50.016Z,28.82
2017-07-20T16:58:19.351Z,28.76
2017-07-20T17:00:47.702Z,28.70
2017-07-20T17:03:16.149Z,28.77
2017-07-20T17:05:43.786Z,28.68
2017-07-20T17:08:12.200Z,28.64
2017-07-20T17:10:40.557Z,28.56
2017-07-20T17:13:08.484Z,28.65
2017-07-20T17:15:36.132Z,28.59
2017-07-20T17:18:03.876Z,28.49
2017-07-20T17:20:32.300Z,28.41
2017-07-20T17:23:01.444Z,28.21
2017-07-20T17:25:30.561Z,28.07
2017-07-20T17:28:00.114Z,27.96
2017-07-20T17:30:28.772Z,27.91
2017-07-20T17:32:57.620Z,27.83
2017-07-20T17:35:26.103Z,27.89
2017-07-20T17:37:54.737Z,27.71
2017-07-20T17:40:23.181Z,27.58
2017-07-20T17:42:50.847Z,27.51
2017-07-20T17:45:18.679Z,27.35
2017-07-20T17:47:47.529Z,27.18
2017-07-20T17:50:15.215Z,27.27
2017-07-20T17:52:42.913Z,27.25
2017-07-20T17:55:10.569Z,27.23
2017-07-20T17:57:38.193Z,27.23
2017-07-20T18:00:06.615Z,27.10
2017-07-20T18:02:34.776Z,27.02
2017-07-20T18:05:02.524Z,27.05
2017-07-20T18:07:30.243Z,27.05
2017-07-20T18:09:57.883Z,26.89
2017-07-20T18:12:26.084Z,26.77
2017-07-20T18:14:54.078Z,26.68
2017-07-20T18:17:21.759Z,26.53
2017-07-20T18:19:49.388Z,26.52
2017-07-20T18:22:17.872Z,26.46
2017-07-20T18:24:45.592Z,26.54
2017-07-20T18:27:13.167Z,26.59
2017-07-20T18:29:41.097Z,26.41
2017-07-20T18:32:09.576Z,26.30
2017-07-20T18:34:38.785Z,26.30
2017-07-20T18:37:07.096Z,26.31
2017-07-20T18:39:36.205Z,26.33
2017-07-20T18:42:04.641Z,26.20
2017-07-20T18:44:33.106Z,26.22
2017-07-20T18:47:01.047Z,26.19
2017-07-20T18:49:29.013Z,26.14
2017-07-20T18:51:56.623Z,26.03
2017-07-20T18:54:24.210Z,25.93
2017-07-20T18:56:52.129Z,25.86
2017-07-20T18:59:19.831Z,25.92
2017-07-20T19:01:48.125Z,26.02
2017-07-20T19:04:17.119Z,25.91
2017-07-20T19:06:44.654Z,25.83
2017-07-20T19:09:13.178Z,25.73
2017-07-20T19:11:40.735Z,25.65
2017-07-20T19:14:09.322Z,25.57
2017-07-20T19:16:36.925Z,25.51
2017-07-20T19:19:04.476Z,25.42
2017-07-20T19:21:32.328Z,25.38
2017-07-20T19:24:00.272Z,25.37
2017-07-20T19:26:31.412Z,25.27
2017-07-20T19:28:59.089Z,25.26
2017-07-20T19:31:27.669Z,25.15
2017-07-20T19:33:56.304Z,25.08
2017-07-20T19:36:24.741Z,24.99
2017-07-20T19:38:52.468Z,24.84
2017-07-20T19:41:20.859Z,24.83
2017-07-20T19:43:48.605Z,24.83
2017-07-20T19:46:16.512Z,24.88
2017-07-20T19:48:45.084Z,24.80
2017-07-20T19:51:13.032Z,24.80
2017-07-20T19:53:40.821Z,24.75
2017-07-20T19:56:08.522Z,24.81
2017-07-20T19:58:36.271Z,24.77
2017-07-20T20:01:03.999Z,24.74
2017-07-20T20:03:31.769Z,24.67
2017-07-20T20:05:59.485Z,24.68
2017-07-20T20:08:27.227Z,24.71
2017-07-20T20:10:54.984Z,24.68
2017-07-20T20:13:23.650Z,24.60
2017-07-20T20:15:51.674Z,24.50
2017-07-20T20:18:22.294Z,24.37
2017-07-20T20:20:54.493Z,24.33
2017-07-20T20:23:22.213Z,24.13
2017-07-20T20:28:51.556Z,23.96
2017-07-20T20:31:19.794Z,23.98
2017-07-20T20:33:47.518Z,24.09
2017-07-20T20:36:15.284Z,24.00
2017-07-20T20:38:43.094Z,23.90
2017-07-20T20:41:11.068Z,23.79
2017-07-20T20:47:03.096Z,23.54
2017-07-20T20:49:30.875Z,23.37
2017-07-20T20:52:01.289Z,23.28
2017-07-20T20:54:30.164Z,23.31
2017-07-20T20:56:59.320Z,23.18
2017-07-20T20:59:27.213Z,23.04
2017-07-20T21:01:54.982Z,23.10
2017-07-20T21:04:29.553Z,22.87
2017-07-20T21:06:57.296Z,22.84
2017-07-20T21:09:26.706Z,22.72
2017-07-20T21:11:57.191Z,22.76
2017-07-20T21:14:25.145Z,22.81
2017-07-20T21:16:52.926Z,22.81
2017-07-20T21:19:20.823Z,22.80
2017-07-20T21:21:48.533Z,22.80
2017-07-20T21:24:16.263Z,22.70
2017-07-20T21:26:44.909Z,22.61
2017-07-20T21:29:13.301Z,22.59
2017-07-20T21:31:41.141Z,22.62
2017-07-20T21:37:30.593Z,22.47
2017-07-20T21:39:58.316Z,22.41
2017-07-20T21:42:26.096Z,22.39
2017-07-20T21:44:53.885Z,22.35
2017-07-20T21:47:21.828Z,22.41
2017-07-20T21:49:50.340Z,22.38
2017-07-20T21:52:18.242Z,22.37
2017-07-20T21:54:46.926Z,22.34
2017-07-20T21:57:14.711Z,22.45
2017-07-20T21:59:42.534Z,22.42
2017-07-20T22:02:10.279Z,22.47
2017-07-20T22:04:38.106Z,22.47
2017-07-20T22:07:05.813Z,22.29
2017-07-20T22:09:33.557Z,22.42
2017-07-20T22:12:01.229Z,22.48
2017-07-20T22:14:29.139Z,22.67
2017-07-20T22:16:56.995Z,22.79
2017-07-20T22:19:28.049Z,22.77
2017-07-20T22:21:55.994Z,22.85
2017-07-20T22:24:23.706Z,22.85
2017-07-20T22:26:51.646Z,22.91
2017-07-20T22:29:20.317Z,22.86
2017-07-20T22:31:48.061Z,22.84
2017-07-20T22:34:15.867Z,22.93
2017-07-20T22:36:44.290Z,22.90
2017-07-20T22:39:11.965Z,22.82
2017-07-20T22:41:39.739Z,22.90
2017-07-20T22:44:07.484Z,22.90
2017-07-20T22:46:35.282Z,22.94
2017-07-20T22:49:03.440Z,22.90
2017-07-20T22:51:31.600Z,22.90
2017-07-20T22:53:59.353Z,22.91
2017-07-20T22:56:27.102Z,22.89
2017-07-20T22:58:54.857Z,22.92
2017-07-20T23:01:22.652Z,23.01
2017-07-20T23:03:56.593Z,22.95
2017-07-20T23:06:24.308Z,23.04
2017-07-20T23:08:52.128Z,22.98
2017-07-20T23:11:19.993Z,22.97
2017-07-20T23:13:47.739Z,22.98
2017-07-20T23:16:15.544Z,23.02
2017-07-20T23:18:43.232Z,22.98
2017-07-20T23:21:11.901Z,22.90
2017-07-20T23:23:40.615Z,22.95
2017-07-20T23:26:08.422Z,22.95
2017-07-20T23:28:36.175Z,22.88
2017-07-20T23:31:03.997Z,22.96
2017-07-20T23:33:31.743Z,22.88
2017-07-20T23:35:59.387Z,22.84
2017-07-20T23:38:27.068Z,22.76
2017-07-20T23:40:54.834Z,22.67
2017-07-20T23:43:22.580Z,22.69
2017-07-20T23:45:52.173Z,22.72
2017-07-20T23:48:19.893Z,22.64
2017-07-20T23:50:47.654Z,22.66
2017-07-20T23:53:15.434Z,22.67
2017-07-20T23:55:43.198Z,22.71
2017-07-20T23:58:10.962Z,22.72
